createdAt,value
2023-05-20T00:01:43.524Z,1.23
2023-05-20T00:04:15.700Z,1.30
2023-05-20T00:06:47.755Z,1.43
2023-05-20T00:09:19.626Z,1.33
2023-05-20T00:11:51.545Z,1.60
2023-05-20T00:14:23.455Z,2.37
2023-05-20T00:16:55.503Z,1.37
2023-05-20T00:19:27.402Z,1.60
2023-05-20T00:21:59.337Z,1.63
2023-05-20T00:24:31.223Z,1.40
2023-05-20T00:27:03.099Z,1.30
2023-05-20T00:29:34.997Z,1.30
2023-05-20T00:32:06.852Z,1.23
2023-05-20T00:34:39.087Z,1.50
2023-05-20T00:37:10.983Z,1.23
2023-05-20T00:39:42.877Z,1.30
2023-05-20T00:42:14.775Z,1.00
2023-05-20T00:44:47.216Z,1.50
2023-05-20T00:47:19.595Z,1.30
2023-05-20T00:49:51.500Z,1.90
2023-05-20T00:52:23.538Z,1.53
2023-05-20T00:54:55.423Z,1.50
2023-05-20T00:57:27.278Z,1.40
2023-05-20T00:59:59.122Z,1.23
2023-05-20T01:02:31.488Z,1.47
2023-05-20T01:05:03.931Z,1.87
2023-05-20T01:07:35.802Z,1.70
2023-05-20T01:10:07.972Z,1.47
2023-05-20T01:12:39.860Z,2.17
2023-05-20T01:15:12.060Z,1.40
2023-05-20T01:17:44.198Z,2.07
2023-05-20T01:20:16.729Z,1.40
2023-05-20T01:22:48.586Z,1.53
2023-05-20T01:25:20.425Z,1.30
2023-05-20T01:27:52.322Z,1.47
2023-05-20T01:30:24.170Z,1.90
2023-05-20T01:32:56.161Z,1.60
2023-05-20T01:35:28.248Z,1.50
2023-05-20T01:38:00.139Z,1.57
2023-05-20T01:40:31.985Z,1.70
2023-05-20T01:43:03.841Z,1.23
2023-05-20T01:45:35.996Z,1.80
2023-05-20T01:48:08.383Z,1.30
2023-05-20T01:50:40.579Z,2.33
2023-05-20T01:53:12.446Z,1.50
2023-05-20T01:55:44.401Z,1.77
2023-05-20T01:58:16.259Z,1.40
2023-05-20T02:00:48.342Z,1.77
2023-05-20T02:03:20.532Z,1.53
2023-05-20T02:05:52.503Z,1.90
2023-05-20T02:08:24.428Z,1.60
2023-05-20T02:10:56.330Z,1.33
2023-05-20T02:13:28.212Z,1.53
2023-05-20T02:16:00.224Z,1.80
2023-05-20T02:18:32.226Z,1.80
2023-05-20T02:21:04.146Z,1.63
2023-05-20T02:23:36.204Z,2.00
2023-05-20T02:26:09.432Z,2.40
2023-05-20T02:28:41.312Z,2.17
2023-05-20T02:31:13.191Z,1.90
2023-05-20T02:33:45.184Z,1.70
2023-05-20T02:36:17.139Z,1.97
2023-05-20T02:38:49.281Z,2.10
2023-05-20T02:41:21.119Z,1.47
2023-05-20T02:43:53.169Z,1.63
2023-05-20T02:46:25.134Z,2.03
2023-05-20T02:48:57.023Z,1.50
2023-05-20T02:51:28.920Z,2.60
2023-05-20T02:54:00.793Z,2.23
2023-05-20T02:56:32.819Z,2.37
2023-05-20T02:59:05.923Z,1.70
2023-05-20T03:01:38.100Z,1.90
2023-05-20T03:04:10.621Z,2.10
2023-05-20T03:06:42.525Z,1.97
2023-05-20T03:09:14.671Z,1.57
2023-05-20T03:11:46.641Z,1.70
2023-05-20T03:14:18.488Z,1.60
2023-05-20T03:16:50.364Z,2.93
2023-05-20T03:19:23.828Z,1.50
2023-05-20T03:21:56.344Z,1.60
2023-05-20T03:24:28.846Z,1.70
2023-05-20T03:27:00.756Z,2.23
2023-05-20T03:29:32.706Z,1.47
2023-05-20T03:32:04.656Z,2.00
2023-05-20T03:34:36.713Z,1.63
2023-05-20T03:37:09.044Z,1.90
2023-05-20T03:39:41.110Z,1.77
2023-05-20T03:42:13.151Z,1.30
2023-05-20T03:44:45.568Z,1.90
2023-05-20T03:47:18.157Z,1.70
2023-05-20T03:49:50.298Z,1.67
2023-05-20T03:52:22.169Z,2.07
2023-05-20T03:54:54.144Z,1.57
2023-05-20T03:57:26.120Z,2.13
2023-05-20T03:59:58.239Z,2.00
2023-05-20T04:02:30.500Z,1.70
2023-05-20T04:05:02.623Z,1.87
2023-05-20T04:07:34.627Z,1.60
2023-05-20T04:10:06.979Z,1.60
2023-05-20T04:12:38.975Z,2.33
2023-05-20T04:15:11.172Z,2.03
2023-05-20T04:17:45.212Z,1.80
2023-05-20T04:20:17.188Z,1.60
2023-05-20T04:22:49.457Z,1.40
2023-05-20T04:25:21.356Z,1.80
2023-05-20T04:27:53.245Z,1.60
2023-05-20T04:30:25.243Z,2.53
2023-05-20T04:32:57.208Z,1.80
2023-05-20T04:35:29.812Z,2.00
2023-05-20T04:38:03.428Z,1.97
2023-05-20T04:40:35.421Z,1.80
2023-05-20T04:43:07.531Z,1.97
2023-05-20T04:45:40.441Z,1.60
2023-05-20T04:48:12.832Z,2.07
2023-05-20T04:50:45.019Z,1.87
2023-05-20T04:53:16.931Z,2.00
2023-05-20T04:55:48.887Z,1.17
2023-05-20T04:58:20.773Z,1.83
2023-05-20T05:00:53.107Z,1.90
2023-05-20T05:03:24.913Z,1.40
2023-05-20T05:05:56.895Z,2.33
2023-05-20T05:08:28.824Z,1.73
2023-05-20T05:11:01.004Z,2.13
2023-05-20T05:13:32.935Z,1.50
2023-05-20T05:16:05.441Z,1.47
2023-05-20T05:18:37.588Z,1.67
2023-05-20T05:21:09.469Z,1.90
2023-05-20T05:23:41.400Z,1.90
2023-05-20T05:26:13.576Z,1.63
2023-05-20T05:28:45.561Z,1.77
2023-05-20T05:31:17.811Z,1.83
2023-05-20T05:33:49.734Z,1.73
2023-05-20T05:36:21.819Z,2.13
2023-05-20T05:38:54.376Z,1.60
2023-05-20T05:41:27.407Z,1.50
2023-05-20T05:43:59.448Z,1.40
2023-05-20T05:46:32.246Z,1.53
2023-05-20T05:49:05.242Z,2.00
2023-05-20T05:51:38.973Z,1.80
2023-05-20T05:54:11.778Z,1.37
2023-05-20T05:56:43.946Z,1.33
2023-05-20T05:59:15.813Z,1.40
2023-05-20T06:01:48.423Z,1.87
2023-05-20T06:04:20.912Z,1.70
2023-05-20T06:06:53.650Z,1.63
2023-05-20T06:09:25.576Z,1.50
2023-05-20T06:11:57.715Z,1.73
2023-05-20T06:14:30.524Z,1.73
2023-05-20T06:17:03.300Z,1.40
2023-05-20T06:19:35.902Z,1.53
2023-05-20T06:22:08.027Z,1.63
2023-05-20T06:24:40.427Z,1.20
2023-05-20T06:27:12.457Z,1.50
2023-05-20T06:29:44.560Z,1.27
2023-05-20T06:32:17.551Z,1.17
2023-05-20T06:34:50.395Z,1.53
2023-05-20T06:37:22.563Z,1.53
2023-05-20T06:39:55.019Z,1.43
2023-05-20T06:42:26.991Z,1.60
2023-05-20T06:45:09.414Z,1.20
2023-05-20T06:47:55.244Z,1.27
2023-05-20T06:50:27.248Z,1.50
2023-05-20T06:52:59.309Z,1.63
2023-05-20T06:55:31.311Z,1.20
2023-05-20T06:58:03.536Z,1.57
2023-05-20T07:00:35.940Z,1.13
2023-05-20T07:03:07.925Z,1.60
2023-05-20T07:05:40.018Z,1.40
2023-05-20T07:08:13.664Z,1.67
2023-05-20T07:10:45.754Z,1.50
2023-05-20T07:13:19.420Z,1.27
2023-05-20T07:15:51.583Z,1.30
2023-05-20T07:18:26.194Z,1.50
2023-05-20T07:20:59.032Z,1.33
2023-05-20T07:23:35.551Z,1.40
2023-05-20T07:26:07.550Z,1.30
2023-05-20T07:28:39.839Z,1.30
2023-05-20T07:31:11.969Z,1.40
2023-05-20T07:33:48.413Z,1.90
2023-05-20T07:36:20.586Z,1.33
2023-05-20T07:39:03.084Z,1.27
2023-05-20T07:41:27.755Z,1.20
2023-05-20T07:44:00.264Z,1.40
2023-05-20T07:46:32.724Z,1.43
2023-05-20T07:49:04.845Z,1.20
2023-05-20T07:51:38.803Z,1.10
2023-05-20T07:54:10.765Z,1.30
2023-05-20T07:56:42.908Z,1.20
2023-05-20T07:59:15.920Z,1.03
2023-05-20T08:01:49.597Z,1.30
2023-05-20T08:04:36.987Z,1.20
2023-05-20T08:07:09.122Z,0.80
2023-05-20T08:09:42.736Z,1.17
2023-05-20T08:12:15.528Z,1.17
2023-05-20T08:14:47.974Z,1.50
2023-05-20T08:17:19.935Z,1.10
2023-05-20T08:19:51.852Z,0.97
2023-05-20T08:22:23.814Z,1.40
2023-05-20T08:24:55.783Z,0.77
2023-05-20T08:27:27.777Z,0.87
2023-05-20T08:30:00.972Z,1.00
2023-05-20T08:32:33.270Z,1.10
2023-05-20T08:35:05.179Z,1.10
2023-05-20T08:37:37.122Z,0.80
2023-05-20T08:40:09.167Z,1.77
2023-05-20T08:42:41.365Z,1.20
2023-05-20T08:45:13.317Z,0.90
2023-05-20T08:47:45.614Z,0.90
2023-05-20T08:50:17.883Z,1.00
2023-05-20T08:52:49.896Z,0.93
2023-05-20T08:55:21.794Z,1.07
2023-05-20T08:57:53.718Z,0.77
2023-05-20T09:00:26.392Z,0.83
2023-05-20T09:03:00.195Z,0.83
2023-05-20T09:05:31.966Z,0.80
2023-05-20T09:08:05.478Z,0.70
2023-05-20T09:10:37.490Z,1.10
2023-05-20T09:13:09.715Z,0.80
2023-05-20T09:15:41.765Z,0.87
2023-05-20T09:18:13.863Z,0.57
2023-05-20T09:20:45.694Z,0.90
2023-05-20T09:23:17.559Z,0.97
2023-05-20T09:25:49.696Z,0.70
2023-05-20T09:28:21.558Z,0.90
2023-05-20T09:30:53.479Z,1.20
2023-05-20T09:33:25.382Z,0.70
2023-05-20T09:35:57.265Z,0.57
2023-05-20T09:38:29.158Z,1.10
2023-05-20T09:41:01.163Z,0.50
2023-05-20T09:43:33.012Z,0.53
2023-05-20T09:46:05.199Z,0.73
2023-05-20T09:48:37.092Z,0.60
2023-05-20T09:51:09.116Z,0.67
2023-05-20T09:53:41.184Z,0.80
2023-05-20T09:56:13.145Z,0.60
2023-05-20T09:58:47.731Z,0.60
2023-05-20T10:01:19.716Z,0.83
2023-05-20T10:03:52.073Z,0.60
2023-05-20T10:06:25.446Z,0.93
2023-05-20T10:08:57.677Z,0.70
2023-05-20T10:11:29.672Z,1.03
2023-05-20T10:14:01.553Z,0.77
2023-05-20T10:16:33.440Z,0.97
2023-05-20T10:19:05.408Z,1.03
2023-05-20T10:21:37.391Z,0.80
2023-05-20T10:24:09.252Z,0.70
2023-05-20T10:26:41.109Z,0.73
2023-05-20T10:29:13.016Z,0.83
2023-05-20T10:31:44.884Z,1.67
2023-05-20T10:34:16.765Z,0.90
2023-05-20T10:36:48.662Z,0.70
2023-05-20T10:39:20.737Z,0.97
2023-05-20T10:41:52.674Z,0.77
2023-05-20T10:44:24.820Z,0.70
2023-05-20T10:49:30.330Z,0.60
2023-05-20T10:52:02.214Z,0.70
2023-05-20T10:54:34.131Z,0.80
2023-05-20T10:57:06.005Z,0.93
2023-05-20T10:59:37.959Z,0.93
2023-05-20T11:02:09.974Z,0.83
2023-05-20T11:04:41.874Z,0.60
2023-05-20T11:07:13.728Z,0.70
2023-05-20T11:09:45.728Z,0.83
2023-05-20T11:12:17.626Z,1.33
2023-05-20T11:14:49.508Z,0.70
2023-05-20T11:17:21.620Z,0.90
2023-05-20T11:19:53.508Z,0.90
2023-05-20T11:22:25.532Z,0.90
2023-05-20T11:24:57.523Z,0.60
2023-05-20T11:27:29.701Z,0.80
2023-05-20T11:30:01.533Z,0.60
2023-05-20T11:32:33.518Z,0.50
2023-05-20T11:35:05.559Z,0.80
2023-05-20T11:37:37.459Z,0.60
2023-05-20T11:40:09.394Z,0.80
2023-05-20T11:42:41.320Z,0.63
2023-05-20T11:45:13.223Z,0.57
2023-05-20T11:47:45.136Z,1.20
2023-05-20T11:50:17.062Z,0.57
2023-05-20T11:52:48.963Z,0.80
2023-05-20T11:55:20.897Z,0.53
2023-05-20T11:57:52.784Z,0.63
2023-05-20T12:00:26.418Z,0.70
2023-05-20T12:02:58.333Z,0.63
2023-05-20T12:05:30.598Z,0.80
2023-05-20T12:08:02.446Z,0.90
2023-05-20T12:10:34.575Z,0.67
2023-05-20T12:13:06.891Z,0.53
2023-05-20T12:15:38.834Z,0.67
2023-05-20T12:18:10.823Z,0.97
2023-05-20T12:20:42.773Z,0.63
2023-05-20T12:23:14.643Z,0.90
2023-05-20T12:25:46.538Z,0.93
2023-05-20T12:28:18.995Z,0.60
2023-05-20T12:30:50.952Z,0.60
2023-05-20T12:33:23.256Z,1.00
2023-05-20T12:35:55.303Z,0.63
2023-05-20T12:38:27.190Z,1.00
2023-05-20T12:40:59.085Z,0.80
2023-05-20T12:43:31.274Z,0.80
2023-05-20T12:46:03.640Z,0.70
2023-05-20T12:48:35.540Z,0.53
2023-05-20T12:51:07.542Z,0.63
2023-05-20T12:53:39.454Z,0.90
2023-05-20T12:56:11.336Z,0.70
2023-05-20T12:58:43.194Z,0.60
2023-05-20T13:01:15.191Z,0.60
2023-05-20T13:03:47.344Z,0.80
2023-05-20T13:06:19.379Z,0.73
2023-05-20T13:08:51.290Z,0.60
2023-05-20T13:11:23.493Z,0.73
2023-05-20T13:13:55.399Z,1.10
2023-05-20T13:16:27.274Z,0.90
2023-05-20T13:18:59.524Z,0.80
2023-05-20T13:21:31.651Z,1.27
2023-05-20T13:24:03.515Z,0.90
2023-05-20T13:26:35.425Z,0.80
2023-05-20T13:29:07.329Z,0.60
2023-05-20T13:31:39.290Z,0.77
2023-05-20T13:34:11.173Z,0.60
2023-05-20T13:36:43.136Z,0.60
2023-05-20T13:39:17.947Z,0.37
2023-05-20T13:41:50.125Z,0.53
2023-05-20T13:44:21.967Z,0.60
2023-05-20T13:46:53.863Z,1.73
2023-05-20T13:49:25.781Z,0.70
2023-05-20T13:51:57.688Z,0.63
2023-05-20T13:54:29.579Z,0.60
2023-05-20T13:57:01.450Z,0.60
2023-05-20T13:59:33.334Z,0.60
2023-05-20T14:02:05.471Z,0.80
2023-05-20T14:04:37.377Z,1.27
2023-05-20T14:07:10.026Z,0.80
2023-05-20T14:09:41.933Z,0.90
2023-05-20T14:12:13.900Z,0.93
2023-05-20T14:14:45.717Z,0.77
2023-05-20T14:17:17.648Z,0.70
2023-05-20T14:19:49.620Z,0.93
2023-05-20T14:22:21.540Z,0.90
2023-05-20T14:24:53.399Z,0.80
2023-05-20T14:27:25.301Z,0.50
2023-05-20T14:29:57.129Z,0.63
2023-05-20T14:32:29.121Z,0.80
2023-05-20T14:35:01.116Z,0.63
2023-05-20T14:37:33.069Z,0.60
2023-05-20T14:40:05.128Z,0.63
2023-05-20T14:42:37.133Z,0.70
2023-05-20T14:45:09.104Z,0.70
2023-05-20T14:47:41.300Z,1.47
2023-05-20T14:50:13.349Z,0.70
2023-05-20T14:52:45.459Z,0.80
2023-05-20T14:55:17.374Z,0.43
2023-05-20T14:57:49.550Z,0.93
2023-05-20T15:00:21.547Z,0.90
2023-05-20T15:02:53.545Z,0.73
2023-05-20T15:05:25.548Z,0.90
2023-05-20T15:07:57.685Z,0.70
2023-05-20T15:10:29.583Z,1.43
2023-05-20T15:13:01.472Z,0.80
2023-05-20T15:15:33.353Z,0.60
2023-05-20T15:18:05.298Z,0.67
2023-05-20T15:20:37.232Z,0.80
2023-05-20T15:23:09.137Z,0.57
2023-05-20T15:25:41.031Z,0.80
2023-05-20T15:28:13.002Z,0.60
2023-05-20T15:30:44.888Z,1.03
2023-05-20T15:33:16.926Z,0.83
2023-05-20T15:35:49.033Z,0.50
2023-05-20T15:38:20.966Z,0.80
2023-05-20T15:40:52.827Z,1.40
2023-05-20T15:43:24.739Z,0.53
2023-05-20T15:45:56.677Z,0.70
2023-05-20T15:48:28.625Z,0.60
2023-05-20T15:51:00.528Z,0.60
2023-05-20T15:53:32.416Z,0.70
2023-05-20T15:56:04.569Z,0.80
2023-05-20T15:58:36.432Z,0.53
2023-05-20T16:01:08.407Z,0.80
2023-05-20T16:03:40.405Z,0.50
2023-05-20T16:06:12.415Z,0.67
2023-05-20T16:08:44.288Z,0.70
2023-05-20T16:11:16.143Z,0.60
2023-05-20T16:13:48.039Z,0.70
2023-05-20T16:16:20.114Z,0.70
2023-05-20T16:18:52.223Z,0.60
2023-05-20T16:21:24.341Z,0.83
2023-05-20T16:23:56.247Z,0.60
2023-05-20T16:26:28.330Z,0.90
2023-05-20T16:29:00.252Z,0.83
2023-05-20T16:31:32.170Z,0.80
2023-05-20T16:34:04.031Z,0.73
2023-05-20T16:36:36.083Z,0.60
2023-05-20T16:39:08.022Z,0.60
2023-05-20T16:41:39.944Z,0.70
2023-05-20T16:44:12.111Z,1.07
2023-05-20T16:46:44.153Z,0.60
2023-05-20T16:49:16.137Z,0.60
2023-05-20T16:51:48.094Z,0.67
2023-05-20T16:54:19.999Z,1.07
2023-05-20T16:56:51.894Z,1.00
2023-05-20T16:59:23.820Z,1.50
2023-05-20T17:01:55.760Z,0.70
2023-05-20T17:04:27.657Z,0.70
2023-05-20T17:06:59.622Z,0.93
2023-05-20T17:09:31.566Z,0.90
2023-05-20T17:12:03.446Z,0.60
2023-05-20T17:14:35.376Z,0.73
2023-05-20T17:17:07.601Z,0.70
2023-05-20T17:19:39.798Z,1.00
2023-05-20T17:22:11.629Z,0.97
2023-05-20T17:24:43.530Z,0.60
2023-05-20T17:27:15.503Z,0.90
2023-05-20T17:29:47.379Z,1.13
2023-05-20T17:32:19.338Z,0.60
2023-05-20T17:34:51.259Z,0.90
2023-05-20T17:37:23.175Z,0.90
2023-05-20T17:39:55.136Z,0.83
2023-05-20T17:42:26.977Z,1.10
2023-05-20T17:44:58.857Z,1.10
2023-05-20T17:47:31.137Z,0.60
2023-05-20T17:50:04.204Z,0.87
2023-05-20T17:52:36.137Z,1.37
2023-05-20T17:55:08.036Z,0.63
2023-05-20T17:57:39.928Z,0.90
2023-05-20T18:00:11.809Z,0.70
2023-05-20T18:02:45.505Z,1.00
2023-05-20T18:05:17.432Z,0.90
2023-05-20T18:07:49.440Z,0.93
2023-05-20T18:10:21.351Z,0.73
2023-05-20T18:12:53.237Z,0.50
2023-05-20T18:15:25.115Z,0.80
2023-05-20T18:17:57.098Z,0.60
2023-05-20T18:20:30.207Z,0.67
2023-05-20T18:23:02.095Z,0.53
2023-05-20T18:25:34.077Z,0.80
2023-05-20T18:28:06.231Z,0.87
2023-05-20T18:30:38.445Z,0.90
2023-05-20T18:33:10.327Z,0.93
2023-05-20T18:35:42.298Z,0.90
2023-05-20T18:38:14.239Z,0.80
2023-05-20T18:40:46.230Z,0.70
2023-05-20T18:43:18.133Z,1.90
2023-05-20T18:45:50.328Z,0.67
2023-05-20T18:48:26.560Z,0.80
2023-05-20T18:50:56.492Z,0.90
2023-05-20T18:53:28.366Z,0.77
2023-05-20T18:56:00.683Z,0.77
2023-05-20T18:58:32.822Z,0.80
2023-05-20T19:01:04.985Z,0.77
2023-05-20T19:03:37.179Z,0.90
2023-05-20T19:06:09.070Z,0.90
2023-05-20T19:08:41.014Z,1.03
2023-05-20T19:11:13.024Z,0.80
2023-05-20T19:13:44.958Z,0.87
2023-05-20T19:16:17.017Z,0.97
2023-05-20T19:18:49.036Z,0.90
2023-05-20T19:21:20.937Z,0.70
2023-05-20T19:23:52.882Z,0.60
2023-05-20T19:26:24.759Z,0.90
2023-05-20T19:28:56.710Z,1.00
2023-05-20T19:31:28.634Z,0.70
2023-05-20T19:34:00.608Z,0.90
2023-05-20T19:36:32.623Z,0.70
2023-05-20T19:39:04.914Z,0.70
2023-05-20T19:41:37.042Z,0.60
2023-05-20T19:44:09.488Z,0.97
2023-05-20T19:46:41.383Z,0.60
2023-05-20T19:49:13.283Z,1.17
2023-05-20T19:51:45.209Z,0.70
2023-05-20T19:54:17.505Z,0.90
2023-05-20T19:56:49.504Z,0.90
2023-05-20T19:59:21.624Z,0.80
2023-05-20T20:01:53.863Z,0.77
2023-05-20T20:04:25.839Z,0.60
2023-05-20T20:06:57.734Z,1.00
2023-05-20T20:09:30.078Z,0.90
2023-05-20T20:12:02.314Z,0.70
2023-05-20T20:14:34.193Z,0.73
2023-05-20T20:17:06.021Z,0.90
2023-05-20T20:19:37.914Z,0.80
2023-05-20T20:22:10.191Z,0.70
2023-05-20T20:24:42.143Z,0.70
2023-05-20T20:27:14.063Z,0.73
2023-05-20T20:29:46.000Z,0.80
2023-05-20T20:32:17.849Z,0.70
2023-05-20T20:34:49.810Z,0.67
2023-05-20T20:37:22.046Z,0.80
2023-05-20T20:39:54.005Z,0.70
2023-05-20T20:42:25.998Z,0.70
2023-05-20T20:44:58.261Z,1.40
2023-05-20T20:47:30.588Z,0.93
2023-05-20T20:50:02.407Z,0.87
2023-05-20T20:52:34.435Z,0.87
2023-05-20T20:55:06.297Z,1.00
2023-05-20T20:57:38.381Z,0.67
2023-05-20T21:00:10.245Z,1.43
2023-05-20T21:02:42.161Z,1.03
2023-05-20T21:05:14.068Z,0.87
2023-05-20T21:07:46.006Z,0.70
2023-05-20T21:10:19.393Z,0.80
2023-05-20T21:12:51.290Z,0.83
2023-05-20T21:15:23.301Z,0.70
2023-05-20T21:17:55.455Z,0.83
2023-05-20T21:20:27.448Z,0.90
2023-05-20T21:22:59.308Z,1.00
2023-05-20T21:25:31.166Z,0.80
2023-05-20T21:28:03.254Z,1.13
2023-05-20T21:30:35.139Z,0.73
2023-05-20T21:33:07.093Z,1.33
2023-05-20T21:35:39.058Z,0.70
2023-05-20T21:38:10.912Z,0.93
2023-05-20T21:40:42.800Z,0.80
2023-05-20T21:43:14.641Z,0.93
2023-05-20T21:45:46.534Z,1.20
2023-05-20T21:48:18.453Z,0.80
2023-05-20T21:50:50.375Z,1.20
2023-05-20T21:53:22.225Z,1.00
2023-05-20T21:55:54.096Z,0.80
2023-05-20T21:58:25.980Z,1.23
2023-05-20T22:00:57.832Z,0.90
2023-05-20T22:03:29.844Z,1.10
2023-05-20T22:06:01.784Z,0.90
2023-05-20T22:08:33.771Z,1.27
2023-05-20T22:11:05.679Z,1.13
2023-05-20T22:13:37.731Z,0.83
2023-05-20T22:16:09.626Z,0.80
2023-05-20T22:18:41.607Z,0.87
2023-05-20T22:21:13.570Z,1.53
2023-05-20T22:23:45.436Z,1.00
2023-05-20T22:26:17.302Z,1.03
2023-05-20T22:28:49.318Z,1.07
2023-05-20T22:31:21.243Z,1.10
2023-05-20T22:33:53.088Z,1.00
2023-05-20T22:36:24.965Z,1.00
2023-05-20T22:38:56.875Z,1.00
2023-05-20T22:41:28.775Z,1.30
2023-05-20T22:44:00.667Z,1.00
2023-05-20T22:46:32.612Z,1.23
2023-05-20T22:49:04.624Z,1.10
2023-05-20T22:51:36.506Z,0.90
2023-05-20T22:54:08.381Z,0.90
2023-05-20T22:56:40.239Z,1.10
2023-05-20T22:59:12.169Z,1.03
2023-05-20T23:01:44.032Z,1.00
2023-05-20T23:04:16.019Z,0.90
2023-05-20T23:06:47.844Z,0.70
2023-05-20T23:09:19.710Z,1.10
2023-05-20T23:11:51.583Z,1.00
2023-05-20T23:14:23.429Z,0.97
2023-05-20T23:16:55.376Z,1.00
2023-05-20T23:19:27.442Z,1.43
2023-05-20T23:21:59.515Z,1.00
2023-05-20T23:24:31.458Z,0.90
2023-05-20T23:27:03.305Z,0.93
2023-05-20T23:29:35.212Z,0.93
2023-05-20T23:32:07.108Z,0.90
2023-05-20T23:34:39.086Z,1.10
2023-05-20T23:37:11.144Z,1.10
2023-05-20T23:39:43.046Z,0.63
2023-05-20T23:42:14.900Z,0.83
2023-05-20T23:44:46.778Z,0.80
2023-05-20T23:47:18.703Z,0.97
2023-05-20T23:49:50.737Z,0.80
2023-05-20T23:52:22.662Z,0.90
2023-05-20T23:54:54.482Z,1.27
2023-05-20T23:57:26.341Z,0.77
2023-05-20T23:59:58.237Z,0.70
